sensor_id;sensor_type;location;lat;lon;timestamp;P1;durP1;ratioP1;P2;durP2;ratioP2
14139;SDS011;7150;53.514;9.988;2024-02-14T00:00:35;5.07;;;2.13;;
14139;SDS011;7150;53.514;9.988;2024-02-14T00:03:00;5.13;;;2.13;;
14139;SDS011;7150;53.514;9.988;2024-02-14T00:05:26;4.10;;;2.00;;
14139;SDS011;7150;53.514;9.988;2024-02-14T00:07:53;5.57;;;2.63;;
14139;SDS011;7150;53.514;9.988;2024-02-14T00:10:19;2.87;;;1.90;;
14139;SDS011;7150;53.514;9.988;2024-02-14T00:12:45;4.87;;;2.00;;
14139;SDS011;7150;53.514;9.988;2024-02-14T00:15:11;5.20;;;2.00;;
14139;SDS011;7150;53.514;9.988;2024-02-14T00:17:37;5.53;;;2.17;;
14139;SDS011;7150;53.514;9.988;2024-02-14T00:20:02;4.87;;;2.27;;
14139;SDS011;7150;53.514;9.988;2024-02-14T00:22:29;3.03;;;2.00;;
14139;SDS011;7150;53.514;9.988;2024-02-14T00:24:55;3.07;;;2.20;;
14139;SDS011;7150;53.514;9.988;2024-02-14T00:27:20;2.67;;;1.80;;
14139;SDS011;7150;53.514;9.988;2024-02-14T00:29:46;3.53;;;2.00;;
14139;SDS011;7150;53.514;9.988;2024-02-14T00:32:14;3.13;;;2.03;;
14139;SDS011;7150;53.514;9.988;2024-02-14T00:34:40;3.87;;;2.23;;
14139;SDS011;7150;53.514;9.988;2024-02-14T00:37:06;3.17;;;1.77;;
14139;SDS011;7150;53.514;9.988;2024-02-14T00:39:31;3.20;;;1.90;;
14139;SDS011;7150;53.514;9.988;2024-02-14T00:41:57;4.10;;;1.53;;
14139;SDS011;7150;53.514;9.988;2024-02-14T00:44:22;2.30;;;1.90;;
14139;SDS011;7150;53.514;9.988;2024-02-14T00:46:48;3.73;;;2.00;;
14139;SDS011;7150;53.514;9.988;2024-02-14T00:49:14;2.27;;;1.50;;
14139;SDS011;7150;53.514;9.988;2024-02-14T00:51:39;3.87;;;1.70;;
14139;SDS011;7150;53.514;9.988;2024-02-14T00:54:05;3.87;;;1.80;;
14139;SDS011;7150;53.514;9.988;2024-02-14T00:56:32;1.97;;;1.60;;
14139;SDS011;7150;53.514;9.988;2024-02-14T00:58:57;2.87;;;1.40;;
14139;SDS011;7150;53.514;9.988;2024-02-14T01:01:23;3.23;;;1.63;;
14139;SDS011;7150;53.514;9.988;2024-02-14T01:03:48;3.50;;;1.73;;
14139;SDS011;7150;53.514;9.988;2024-02-14T01:06:17;3.07;;;1.70;;
14139;SDS011;7150;53.514;9.988;2024-02-14T01:08:43;4.20;;;1.97;;
14139;SDS011;7150;53.514;9.988;2024-02-14T01:11:09;2.23;;;1.67;;
14139;SDS011;7150;53.514;9.988;2024-02-14T01:13:34;2.47;;;1.63;;
14139;SDS011;7150;53.514;9.988;2024-02-14T01:16:00;3.60;;;1.70;;
14139;SDS011;7150;53.514;9.988;2024-02-14T01:18:26;4.27;;;1.67;;
14139;SDS011;7150;53.514;9.988;2024-02-14T01:20:51;3.30;;;1.70;;
14139;SDS011;7150;53.514;9.988;2024-02-14T01:23:16;2.53;;;1.37;;
14139;SDS011;7150;53.514;9.988;2024-02-14T01:25:42;2.60;;;1.70;;
14139;SDS011;7150;53.514;9.988;2024-02-14T01:28:08;2.17;;;1.60;;
14139;SDS011;7150;53.514;9.988;2024-02-14T01:30:34;2.13;;;1.53;;
14139;SDS011;7150;53.514;9.988;2024-02-14T01:33:01;4.33;;;1.83;;
14139;SDS011;7150;53.514;9.988;2024-02-14T01:35:28;3.07;;;1.90;;
14139;SDS011;7150;53.514;9.988;2024-02-14T01:37:55;2.17;;;1.43;;
14139;SDS011;7150;53.514;9.988;2024-02-14T01:40:20;4.43;;;1.80;;
14139;SDS011;7150;53.514;9.988;2024-02-14T01:42:46;3.50;;;1.70;;
14139;SDS011;7150;53.514;9.988;2024-02-14T01:45:11;2.63;;;1.70;;
14139;SDS011;7150;53.514;9.988;2024-02-14T01:47:37;2.50;;;1.80;;
14139;SDS011;7150;53.514;9.988;2024-02-14T01:50:05;4.07;;;1.80;;
14139;SDS011;7150;53.514;9.988;2024-02-14T01:52:33;2.57;;;1.70;;
14139;SDS011;7150;53.514;9.988;2024-02-14T01:55:00;3.37;;;1.73;;
14139;SDS011;7150;53.514;9.988;2024-02-14T01:57:28;2.77;;;1.93;;
14139;SDS011;7150;53.514;9.988;2024-02-14T01:59:54;2.60;;;1.70;;
14139;SDS011;7150;53.514;9.988;2024-02-14T02:02:21;3.40;;;1.77;;
14139;SDS011;7150;53.514;9.988;2024-02-14T02:04:47;2.03;;;1.70;;
14139;SDS011;7150;53.514;9.988;2024-02-14T02:07:12;2.70;;;1.60;;
14139;SDS011;7150;53.514;9.988;2024-02-14T02:09:38;2.37;;;1.70;;
14139;SDS011;7150;53.514;9.988;2024-02-14T02:12:04;5.43;;;2.10;;
14139;SDS011;7150;53.514;9.988;2024-02-14T02:14:32;4.23;;;1.70;;
14139;SDS011;7150;53.514;9.988;2024-02-14T02:16:58;4.10;;;2.10;;
14139;SDS011;7150;53.514;9.988;2024-02-14T02:19:24;4.37;;;1.93;;
14139;SDS011;7150;53.514;9.988;2024-02-14T02:21:49;2.60;;;1.80;;
14139;SDS011;7150;53.514;9.988;2024-02-14T02:24:15;2.77;;;1.67;;
14139;SDS011;7150;53.514;9.988;2024-02-14T02:26:40;2.57;;;1.90;;
14139;SDS011;7150;53.514;9.988;2024-02-14T02:29:06;2.37;;;1.70;;
14139;SDS011;7150;53.514;9.988;2024-02-14T02:31:31;3.33;;;2.00;;
14139;SDS011;7150;53.514;9.988;2024-02-14T02:33:57;2.50;;;1.77;;
14139;SDS011;7150;53.514;9.988;2024-02-14T02:36:23;4.47;;;2.00;;
14139;SDS011;7150;53.514;9.988;2024-02-14T02:38:49;4.13;;;1.90;;
14139;SDS011;7150;53.514;9.988;2024-02-14T02:41:15;4.07;;;1.93;;
14139;SDS011;7150;53.514;9.988;2024-02-14T02:43:41;4.40;;;2.00;;
14139;SDS011;7150;53.514;9.988;2024-02-14T02:46:08;3.40;;;2.37;;
14139;SDS011;7150;53.514;9.988;2024-02-14T02:48:34;2.50;;;1.97;;
14139;SDS011;7150;53.514;9.988;2024-02-14T02:51:01;3.20;;;1.97;;
14139;SDS011;7150;53.514;9.988;2024-02-14T02:53:26;4.57;;;2.23;;
14139;SDS011;7150;53.514;9.988;2024-02-14T02:55:51;4.37;;;2.50;;
14139;SDS011;7150;53.514;9.988;2024-02-14T02:58:19;4.20;;;2.13;;
14139;SDS011;7150;53.514;9.988;2024-02-14T03:00:46;2.80;;;1.73;;
14139;SDS011;7150;53.514;9.988;2024-02-14T03:03:14;3.60;;;2.20;;
14139;SDS011;7150;53.514;9.988;2024-02-14T03:05:41;4.50;;;1.93;;
14139;SDS011;7150;53.514;9.988;2024-02-14T03:08:06;2.77;;;2.03;;
14139;SDS011;7150;53.514;9.988;2024-02-14T03:10:33;2.93;;;1.97;;
14139;SDS011;7150;53.514;9.988;2024-02-14T03:12:58;2.37;;;2.17;;
14139;SDS011;7150;53.514;9.988;2024-02-14T03:15:24;2.20;;;1.53;;
14139;SDS011;7150;53.514;9.988;2024-02-14T03:17:50;5.83;;;2.30;;
14139;SDS011;7150;53.514;9.988;2024-02-14T03:20:16;3.10;;;2.30;;
14139;SDS011;7150;53.514;9.988;2024-02-14T03:22:41;5.23;;;2.30;;
14139;SDS011;7150;53.514;9.988;2024-02-14T03:25:11;2.20;;;2.00;;
14139;SDS011;7150;53.514;9.988;2024-02-14T03:27:46;3.13;;;2.00;;
14139;SDS011;7150;53.514;9.988;2024-02-14T03:30:16;6.03;;;2.20;;
14139;SDS011;7150;53.514;9.988;2024-02-14T03:32:45;3.67;;;2.10;;
14139;SDS011;7150;53.514;9.988;2024-02-14T03:35:11;2.93;;;2.10;;
14139;SDS011;7150;53.514;9.988;2024-02-14T03:37:38;3.20;;;2.13;;
14139;SDS011;7150;53.514;9.988;2024-02-14T03:40:06;4.30;;;2.20;;
14139;SDS011;7150;53.514;9.988;2024-02-14T03:42:34;3.23;;;2.10;;
14139;SDS011;7150;53.514;9.988;2024-02-14T03:44:59;4.17;;;2.17;;
14139;SDS011;7150;53.514;9.988;2024-02-14T03:47:30;2.80;;;2.30;;
14139;SDS011;7150;53.514;9.988;2024-02-14T03:49:57;4.17;;;1.93;;
14139;SDS011;7150;53.514;9.988;2024-02-14T03:52:23;3.63;;;2.50;;
14139;SDS011;7150;53.514;9.988;2024-02-14T03:54:49;3.13;;;2.33;;
14139;SDS011;7150;53.514;9.988;2024-02-14T03:57:15;3.23;;;2.00;;
14139;SDS011;7150;53.514;9.988;2024-02-14T03:59:42;4.90;;;2.17;;
14139;SDS011;7150;53.514;9.988;2024-02-14T04:02:11;3.80;;;2.10;;
14139;SDS011;7150;53.514;9.988;2024-02-14T04:04:38;4.20;;;2.20;;
14139;SDS011;7150;53.514;9.988;2024-02-14T04:07:06;3.07;;;2.10;;
14139;SDS011;7150;53.514;9.988;2024-02-14T04:09:35;5.47;;;2.30;;
14139;SDS011;7150;53.514;9.988;2024-02-14T04:12:01;2.90;;;2.27;;
14139;SDS011;7150;53.514;9.988;2024-02-14T04:14:27;3.40;;;2.20;;
14139;SDS011;7150;53.514;9.988;2024-02-14T04:16:52;3.73;;;2.43;;
14139;SDS011;7150;53.514;9.988;2024-02-14T04:19:18;2.50;;;2.03;;
14139;SDS011;7150;53.514;9.988;2024-02-14T04:21:44;3.47;;;2.43;;
14139;SDS011;7150;53.514;9.988;2024-02-14T04:24:09;3.37;;;2.60;;
14139;SDS011;7150;53.514;9.988;2024-02-14T04:26:35;4.20;;;2.27;;
14139;SDS011;7150;53.514;9.988;2024-02-14T04:29:00;5.97;;;2.50;;
14139;SDS011;7150;53.514;9.988;2024-02-14T04:31:26;5.57;;;2.87;;
14139;SDS011;7150;53.514;9.988;2024-02-14T04:34:00;3.23;;;2.20;;
14139;SDS011;7150;53.514;9.988;2024-02-14T04:36:26;4.10;;;2.50;;
14139;SDS011;7150;53.514;9.988;2024-02-14T04:38:52;2.77;;;2.20;;
14139;SDS011;7150;53.514;9.988;2024-02-14T04:41:18;3.70;;;2.40;;
14139;SDS011;7150;53.514;9.988;2024-02-14T04:43:44;5.53;;;2.70;;
14139;SDS011;7150;53.514;9.988;2024-02-14T04:46:09;3.03;;;2.50;;
14139;SDS011;7150;53.514;9.988;2024-02-14T04:48:35;5.10;;;2.60;;
14139;SDS011;7150;53.514;9.988;2024-02-14T04:51:01;2.90;;;2.13;;
14139;SDS011;7150;53.514;9.988;2024-02-14T04:53:27;3.93;;;3.00;;
14139;SDS011;7150;53.514;9.988;2024-02-14T04:55:53;5.00;;;2.50;;
14139;SDS011;7150;53.514;9.988;2024-02-14T04:58:19;3.13;;;2.20;;
14139;SDS011;7150;53.514;9.988;2024-02-14T05:00:45;4.90;;;2.63;;
14139;SDS011;7150;53.514;9.988;2024-02-14T05:03:10;4.33;;;2.50;;
14139;SDS011;7150;53.514;9.988;2024-02-14T05:05:36;3.80;;;2.40;;
14139;SDS011;7150;53.514;9.988;2024-02-14T05:08:02;3.53;;;2.70;;
14139;SDS011;7150;53.514;9.988;2024-02-14T05:10:29;3.23;;;2.60;;
14139;SDS011;7150;53.514;9.988;2024-02-14T05:12:54;4.27;;;2.43;;
14139;SDS011;7150;53.514;9.988;2024-02-14T05:15:20;3.10;;;2.47;;
14139;SDS011;7150;53.514;9.988;2024-02-14T05:17:45;4.17;;;2.57;;
14139;SDS011;7150;53.514;9.988;2024-02-14T05:20:11;4.23;;;2.33;;
14139;SDS011;7150;53.514;9.988;2024-02-14T05:22:37;4.10;;;2.70;;
14139;SDS011;7150;53.514;9.988;2024-02-14T05:25:03;3.57;;;2.70;;
14139;SDS011;7150;53.514;9.988;2024-02-14T05:27:30;3.47;;;2.73;;
14139;SDS011;7150;53.514;9.988;2024-02-14T05:29:55;3.47;;;2.73;;
14139;SDS011;7150;53.514;9.988;2024-02-14T05:32:22;3.50;;;2.60;;
14139;SDS011;7150;53.514;9.988;2024-02-14T05:34:48;3.97;;;2.80;;
14139;SDS011;7150;53.514;9.988;2024-02-14T05:37:14;3.27;;;2.60;;
14139;SDS011;7150;53.514;9.988;2024-02-14T05:39:39;4.17;;;2.40;;
14139;SDS011;7150;53.514;9.988;2024-02-14T05:42:05;4.73;;;3.03;;
14139;SDS011;7150;53.514;9.988;2024-02-14T05:44:31;3.93;;;2.37;;
14139;SDS011;7150;53.514;9.988;2024-02-14T05:46:56;5.83;;;3.17;;
14139;SDS011;7150;53.514;9.988;2024-02-14T05:49:22;4.13;;;2.40;;
14139;SDS011;7150;53.514;9.988;2024-02-14T05:51:48;4.17;;;2.70;;
14139;SDS011;7150;53.514;9.988;2024-02-14T05:54:15;3.90;;;2.60;;
14139;SDS011;7150;53.514;9.988;2024-02-14T05:56:40;4.03;;;2.63;;
14139;SDS011;7150;53.514;9.988;2024-02-14T05:59:06;3.10;;;2.40;;
14139;SDS011;7150;53.514;9.988;2024-02-14T06:01:31;4.07;;;2.60;;
14139;SDS011;7150;53.514;9.988;2024-02-14T06:03:57;2.97;;;2.40;;
14139;SDS011;7150;53.514;9.988;2024-02-14T06:06:22;4.37;;;2.93;;
14139;SDS011;7150;53.514;9.988;2024-02-14T06:08:48;3.43;;;2.30;;
14139;SDS011;7150;53.514;9.988;2024-02-14T06:11:13;3.47;;;2.57;;
14139;SDS011;7150;53.514;9.988;2024-02-14T06:13:41;3.77;;;2.27;;
14139;SDS011;7150;53.514;9.988;2024-02-14T06:16:06;4.47;;;2.60;;
14139;SDS011;7150;53.514;9.988;2024-02-14T06:18:33;3.23;;;2.43;;
14139;SDS011;7150;53.514;9.988;2024-02-14T06:20:59;3.10;;;2.60;;
14139;SDS011;7150;53.514;9.988;2024-02-14T06:23:25;3.23;;;2.27;;
14139;SDS011;7150;53.514;9.988;2024-02-14T06:25:50;3.77;;;2.77;;
14139;SDS011;7150;53.514;9.988;2024-02-14T06:28:16;3.33;;;2.33;;
14139;SDS011;7150;53.514;9.988;2024-02-14T06:30:41;2.83;;;2.40;;
14139;SDS011;7150;53.514;9.988;2024-02-14T06:33:07;3.23;;;2.70;;
14139;SDS011;7150;53.514;9.988;2024-02-14T06:35:32;3.90;;;2.50;;
14139;SDS011;7150;53.514;9.988;2024-02-14T06:37:58;3.07;;;2.63;;
14139;SDS011;7150;53.514;9.988;2024-02-14T06:40:23;2.87;;;2.30;;
14139;SDS011;7150;53.514;9.988;2024-02-14T06:42:49;2.83;;;2.40;;
14139;SDS011;7150;53.514;9.988;2024-02-14T06:45:15;3.37;;;2.30;;
14139;SDS011;7150;53.514;9.988;2024-02-14T06:47:42;4.00;;;2.80;;
14139;SDS011;7150;53.514;9.988;2024-02-14T06:50:08;5.17;;;3.10;;
14139;SDS011;7150;53.514;9.988;2024-02-14T06:52:33;2.87;;;2.40;;
14139;SDS011;7150;53.514;9.988;2024-02-14T06:54:59;2.73;;;2.40;;
14139;SDS011;7150;53.514;9.988;2024-02-14T06:57:25;3.50;;;2.53;;
14139;SDS011;7150;53.514;9.988;2024-02-14T06:59:51;3.90;;;2.70;;
14139;SDS011;7150;53.514;9.988;2024-02-14T07:02:16;4.00;;;2.67;;
14139;SDS011;7150;53.514;9.988;2024-02-14T07:04:42;3.73;;;2.70;;
14139;SDS011;7150;53.514;9.988;2024-02-14T07:07:07;3.83;;;2.83;;
14139;SDS011;7150;53.514;9.988;2024-02-14T07:09:33;3.77;;;2.70;;
14139;SDS011;7150;53.514;9.988;2024-02-14T07:12:00;5.53;;;2.97;;
14139;SDS011;7150;53.514;9.988;2024-02-14T07:14:26;3.00;;;2.30;;
14139;SDS011;7150;53.514;9.988;2024-02-14T07:16:52;3.10;;;2.73;;
14139;SDS011;7150;53.514;9.988;2024-02-14T07:19:17;4.77;;;2.90;;
14139;SDS011;7150;53.514;9.988;2024-02-14T07:21:43;4.07;;;2.93;;
14139;SDS011;7150;53.514;9.988;2024-02-14T07:24:09;2.73;;;2.43;;
14139;SDS011;7150;53.514;9.988;2024-02-14T07:26:34;3.07;;;2.50;;
14139;SDS011;7150;53.514;9.988;2024-02-14T07:29:00;3.83;;;3.03;;
14139;SDS011;7150;53.514;9.988;2024-02-14T07:33:55;3.47;;;2.70;;
14139;SDS011;7150;53.514;9.988;2024-02-14T07:36:20;2.73;;;2.47;;
14139;SDS011;7150;53.514;9.988;2024-02-14T07:38:46;3.03;;;2.73;;
14139;SDS011;7150;53.514;9.988;2024-02-14T07:41:12;3.63;;;2.87;;
14139;SDS011;7150;53.514;9.988;2024-02-14T07:43:37;2.97;;;2.67;;
14139;SDS011;7150;53.514;9.988;2024-02-14T07:46:02;3.83;;;3.00;;
14139;SDS011;7150;53.514;9.988;2024-02-14T07:48:30;4.50;;;3.40;;
14139;SDS011;7150;53.514;9.988;2024-02-14T07:50:56;3.00;;;2.70;;
14139;SDS011;7150;53.514;9.988;2024-02-14T07:53:22;3.33;;;2.83;;
14139;SDS011;7150;53.514;9.988;2024-02-14T07:55:48;3.73;;;3.03;;
14139;SDS011;7150;53.514;9.988;2024-02-14T07:58:14;4.13;;;3.33;;
14139;SDS011;7150;53.514;9.988;2024-02-14T08:00:40;3.77;;;2.70;;
14139;SDS011;7150;53.514;9.988;2024-02-14T08:03:05;4.73;;;2.90;;
14139;SDS011;7150;53.514;9.988;2024-02-14T08:05:31;3.33;;;3.03;;
14139;SDS011;7150;53.514;9.988;2024-02-14T08:07:56;3.50;;;3.20;;
14139;SDS011;7150;53.514;9.988;2024-02-14T08:10:22;4.27;;;3.13;;
14139;SDS011;7150;53.514;9.988;2024-02-14T08:12:48;5.07;;;3.37;;
14139;SDS011;7150;53.514;9.988;2024-02-14T08:15:13;3.47;;;3.17;;
14139;SDS011;7150;53.514;9.988;2024-02-14T08:17:39;3.63;;;2.90;;
14139;SDS011;7150;53.514;9.988;2024-02-14T08:20:04;3.93;;;2.90;;
14139;SDS011;7150;53.514;9.988;2024-02-14T08:22:30;4.27;;;3.17;;
14139;SDS011;7150;53.514;9.988;2024-02-14T08:24:56;3.83;;;2.70;;
14139;SDS011;7150;53.514;9.988;2024-02-14T08:27:22;3.67;;;2.80;;
14139;SDS011;7150;53.514;9.988;2024-02-14T08:29:47;5.00;;;3.23;;
14139;SDS011;7150;53.514;9.988;2024-02-14T08:32:13;4.00;;;3.20;;
14139;SDS011;7150;53.514;9.988;2024-02-14T08:34:38;3.63;;;2.90;;
14139;SDS011;7150;53.514;9.988;2024-02-14T08:37:04;3.77;;;2.60;;
14139;SDS011;7150;53.514;9.988;2024-02-14T08:39:30;3.63;;;2.93;;
14139;SDS011;7150;53.514;9.988;2024-02-14T08:41:56;4.27;;;3.13;;
14139;SDS011;7150;53.514;9.988;2024-02-14T08:44:21;3.87;;;2.50;;
14139;SDS011;7150;53.514;9.988;2024-02-14T08:46:47;3.47;;;2.80;;
14139;SDS011;7150;53.514;9.988;2024-02-14T08:49:13;4.70;;;2.80;;
14139;SDS011;7150;53.514;9.988;2024-02-14T08:51:39;3.70;;;2.80;;
14139;SDS011;7150;53.514;9.988;2024-02-14T08:54:04;3.03;;;2.73;;
14139;SDS011;7150;53.514;9.988;2024-02-14T08:56:34;2.93;;;2.53;;
14139;SDS011;7150;53.514;9.988;2024-02-14T08:59:00;5.17;;;2.70;;
14139;SDS011;7150;53.514;9.988;2024-02-14T09:01:27;3.07;;;2.53;;
14139;SDS011;7150;53.514;9.988;2024-02-14T09:03:53;3.13;;;2.27;;
14139;SDS011;7150;53.514;9.988;2024-02-14T09:06:19;2.43;;;2.23;;
14139;SDS011;7150;53.514;9.988;2024-02-14T09:08:44;2.93;;;2.60;;
14139;SDS011;7150;53.514;9.988;2024-02-14T09:11:10;5.90;;;2.80;;
14139;SDS011;7150;53.514;9.988;2024-02-14T09:13:37;4.37;;;2.90;;
14139;SDS011;7150;53.514;9.988;2024-02-14T09:16:02;2.97;;;2.37;;
14139;SDS011;7150;53.514;9.988;2024-02-14T09:18:28;3.40;;;2.50;;
14139;SDS011;7150;53.514;9.988;2024-02-14T09:20:56;4.93;;;3.20;;
14139;SDS011;7150;53.514;9.988;2024-02-14T09:23:22;4.20;;;2.93;;
14139;SDS011;7150;53.514;9.988;2024-02-14T09:25:48;3.97;;;2.57;;
14139;SDS011;7150;53.514;9.988;2024-02-14T09:28:15;2.60;;;2.30;;
14139;SDS011;7150;53.514;9.988;2024-02-14T09:30:41;2.60;;;2.40;;
14139;SDS011;7150;53.514;9.988;2024-02-14T09:33:07;2.27;;;2.07;;
14139;SDS011;7150;53.514;9.988;2024-02-14T09:35:32;4.03;;;2.70;;
14139;SDS011;7150;53.514;9.988;2024-02-14T09:38:00;2.30;;;2.10;;
14139;SDS011;7150;53.514;9.988;2024-02-14T09:40:25;2.10;;;1.90;;
14139;SDS011;7150;53.514;9.988;2024-02-14T09:42:53;2.53;;;1.97;;
14139;SDS011;7150;53.514;9.988;2024-02-14T09:45:20;2.00;;;1.80;;
14139;SDS011;7150;53.514;9.988;2024-02-14T09:47:49;3.83;;;1.90;;
14139;SDS011;7150;53.514;9.988;2024-02-14T09:50:15;2.87;;;1.63;;
14139;SDS011;7150;53.514;9.988;2024-02-14T09:52:41;1.93;;;1.50;;
14139;SDS011;7150;53.514;9.988;2024-02-14T09:55:08;1.50;;;1.40;;
14139;SDS011;7150;53.514;9.988;2024-02-14T09:57:34;1.90;;;1.40;;
14139;SDS011;7150;53.514;9.988;2024-02-14T10:00:02;1.50;;;1.40;;
14139;SDS011;7150;53.514;9.988;2024-02-14T10:02:29;1.60;;;1.40;;
14139;SDS011;7150;53.514;9.988;2024-02-14T10:04:55;1.80;;;1.30;;
14139;SDS011;7150;53.514;9.988;2024-02-14T10:07:20;1.50;;;1.30;;
14139;SDS011;7150;53.514;9.988;2024-02-14T10:09:46;1.53;;;1.40;;
14139;SDS011;7150;53.514;9.988;2024-02-14T10:12:12;1.70;;;1.40;;
14139;SDS011;7150;53.514;9.988;2024-02-14T10:14:38;1.53;;;1.43;;
14139;SDS011;7150;53.514;9.988;2024-02-14T10:17:03;1.17;;;1.07;;
14139;SDS011;7150;53.514;9.988;2024-02-14T10:19:29;1.60;;;1.30;;
14139;SDS011;7150;53.514;9.988;2024-02-14T10:21:58;1.77;;;1.17;;
14139;SDS011;7150;53.514;9.988;2024-02-14T10:24:26;1.67;;;1.57;;
14139;SDS011;7150;53.514;9.988;2024-02-14T10:26:53;1.90;;;1.20;;
14139;SDS011;7150;53.514;9.988;2024-02-14T10:29:19;1.30;;;1.20;;
14139;SDS011;7150;53.514;9.988;2024-02-14T10:38:08;1.30;;;1.20;;
14139;SDS011;7150;53.514;9.988;2024-02-14T10:40:34;1.73;;;1.30;;
14139;SDS011;7150;53.514;9.988;2024-02-14T10:43:01;2.67;;;1.50;;
14139;SDS011;7150;53.514;9.988;2024-02-14T10:45:27;1.40;;;1.30;;
14139;SDS011;7150;53.514;9.988;2024-02-14T10:47:53;1.50;;;1.40;;
14139;SDS011;7150;53.514;9.988;2024-02-14T10:50:22;1.30;;;1.20;;
14139;SDS011;7150;53.514;9.988;2024-02-14T10:52:49;3.13;;;1.40;;
14139;SDS011;7150;53.514;9.988;2024-02-14T10:55:18;1.70;;;1.60;;
14139;SDS011;7150;53.514;9.988;2024-02-14T10:57:45;2.43;;;1.60;;
14139;SDS011;7150;53.514;9.988;2024-02-14T11:00:12;1.80;;;1.43;;
14139;SDS011;7150;53.514;9.988;2024-02-14T11:02:41;3.07;;;1.40;;
14139;SDS011;7150;53.514;9.988;2024-02-14T11:05:13;3.77;;;1.60;;
14139;SDS011;7150;53.514;9.988;2024-02-14T11:07:46;2.00;;;1.67;;
14139;SDS011;7150;53.514;9.988;2024-02-14T11:10:15;2.70;;;1.33;;
14139;SDS011;7150;53.514;9.988;2024-02-14T11:12:42;2.20;;;1.50;;
14139;SDS011;7150;53.514;9.988;2024-02-14T11:15:10;3.57;;;1.60;;
14139;SDS011;7150;53.514;9.988;2024-02-14T11:17:46;2.07;;;1.87;;
14139;SDS011;7150;53.514;9.988;2024-02-14T11:20:15;2.00;;;1.80;;
14139;SDS011;7150;53.514;9.988;2024-02-14T11:22:50;2.17;;;1.73;;
14139;SDS011;7150;53.514;9.988;2024-02-14T11:25:22;2.13;;;1.93;;
14139;SDS011;7150;53.514;9.988;2024-02-14T11:27:52;2.00;;;1.80;;
14139;SDS011;7150;53.514;9.988;2024-02-14T11:30:31;2.20;;;2.00;;
14139;SDS011;7150;53.514;9.988;2024-02-14T11:33:18;2.30;;;2.03;;
14139;SDS011;7150;53.514;9.988;2024-02-14T11:35:46;3.20;;;2.43;;
14139;SDS011;7150;53.514;9.988;2024-02-14T11:38:14;3.43;;;2.43;;
14139;SDS011;7150;53.514;9.988;2024-02-14T11:40:40;2.80;;;2.27;;
14139;SDS011;7150;53.514;9.988;2024-02-14T11:43:18;3.27;;;2.50;;
14139;SDS011;7150;53.514;9.988;2024-02-14T11:45:45;2.07;;;1.87;;
14139;SDS011;7150;53.514;9.988;2024-02-14T11:48:14;2.97;;;2.10;;
14139;SDS011;7150;53.514;9.988;2024-02-14T11:50:42;2.40;;;2.20;;
14139;SDS011;7150;53.514;9.988;2024-02-14T11:53:08;2.33;;;2.13;;
14139;SDS011;7150;53.514;9.988;2024-02-14T11:55:40;2.50;;;2.30;;
14139;SDS011;7150;53.514;9.988;2024-02-14T11:58:15;2.97;;;2.23;;
14139;SDS011;7150;53.514;9.988;2024-02-14T12:00:45;4.03;;;2.07;;
14139;SDS011;7150;53.514;9.988;2024-02-14T12:03:12;3.10;;;2.40;;
14139;SDS011;7150;53.514;9.988;2024-02-14T12:05:41;2.67;;;2.47;;
14139;SDS011;7150;53.514;9.988;2024-02-14T12:08:12;3.33;;;2.20;;
14139;SDS011;7150;53.514;9.988;2024-02-14T12:10:38;3.73;;;2.73;;
14139;SDS011;7150;53.514;9.988;2024-02-14T12:13:08;4.23;;;2.87;;
14139;SDS011;7150;53.514;9.988;2024-02-14T12:15:41;3.33;;;2.87;;
14139;SDS011;7150;53.514;9.988;2024-02-14T12:18:08;2.77;;;2.57;;
14139;SDS011;7150;53.514;9.988;2024-02-14T12:20:35;5.37;;;3.07;;
14139;SDS011;7150;53.514;9.988;2024-02-14T12:23:02;3.30;;;3.00;;
14139;SDS011;7150;53.514;9.988;2024-02-14T12:25:27;4.37;;;3.27;;
14139;SDS011;7150;53.514;9.988;2024-02-14T12:27:56;4.07;;;3.30;;
14139;SDS011;7150;53.514;9.988;2024-02-14T12:30:22;3.67;;;3.10;;
14139;SDS011;7150;53.514;9.988;2024-02-14T12:32:59;4.23;;;3.20;;
14139;SDS011;7150;53.514;9.988;2024-02-14T12:35:26;4.13;;;3.60;;
14139;SDS011;7150;53.514;9.988;2024-02-14T12:37:51;5.80;;;4.77;;
14139;SDS011;7150;53.514;9.988;2024-02-14T12:40:18;5.67;;;4.20;;
14139;SDS011;7150;53.514;9.988;2024-02-14T12:42:45;4.77;;;4.00;;
14139;SDS011;7150;53.514;9.988;2024-02-14T12:45:10;5.93;;;4.60;;
14139;SDS011;7150;53.514;9.988;2024-02-14T12:47:36;6.10;;;5.07;;
14139;SDS011;7150;53.514;9.988;2024-02-14T12:50:02;6.43;;;4.80;;
14139;SDS011;7150;53.514;9.988;2024-02-14T12:52:27;6.63;;;4.83;;
14139;SDS011;7150;53.514;9.988;2024-02-14T12:54:53;6.27;;;4.70;;
14139;SDS011;7150;53.514;9.988;2024-02-14T12:57:18;5.17;;;4.50;;
14139;SDS011;7150;53.514;9.988;2024-02-14T12:59:46;6.97;;;5.20;;
14139;SDS011;7150;53.514;9.988;2024-02-14T13:02:11;6.77;;;5.13;;
14139;SDS011;7150;53.514;9.988;2024-02-14T13:04:37;6.13;;;4.60;;
14139;SDS011;7150;53.514;9.988;2024-02-14T13:07:03;4.53;;;4.10;;
14139;SDS011;7150;53.514;9.988;2024-02-14T13:09:29;4.90;;;4.40;;
14139;SDS011;7150;53.514;9.988;2024-02-14T13:11:55;4.70;;;3.83;;
14139;SDS011;7150;53.514;9.988;2024-02-14T13:14:21;6.87;;;4.17;;
14139;SDS011;7150;53.514;9.988;2024-02-14T13:16:46;5.17;;;3.83;;
14139;SDS011;7150;53.514;9.988;2024-02-14T13:19:12;6.27;;;4.70;;
14139;SDS011;7150;53.514;9.988;2024-02-14T13:21:37;7.03;;;4.10;;
14139;SDS011;7150;53.514;9.988;2024-02-14T13:24:04;6.70;;;4.47;;
14139;SDS011;7150;53.514;9.988;2024-02-14T13:26:30;6.87;;;3.67;;
14139;SDS011;7150;53.514;9.988;2024-02-14T13:28:56;4.67;;;3.90;;
14139;SDS011;7150;53.514;9.988;2024-02-14T13:31:21;4.23;;;3.77;;
14139;SDS011;7150;53.514;9.988;2024-02-14T13:33:46;5.90;;;4.20;;
14139;SDS011;7150;53.514;9.988;2024-02-14T13:36:12;3.80;;;3.27;;
14139;SDS011;7150;53.514;9.988;2024-02-14T13:38:40;4.33;;;3.83;;
14139;SDS011;7150;53.514;9.988;2024-02-14T13:41:05;6.57;;;3.90;;
14139;SDS011;7150;53.514;9.988;2024-02-14T13:43:31;4.33;;;3.63;;
14139;SDS011;7150;53.514;9.988;2024-02-14T13:45:56;5.07;;;4.07;;
14139;SDS011;7150;53.514;9.988;2024-02-14T13:48:22;4.03;;;3.43;;
14139;SDS011;7150;53.514;9.988;2024-02-14T13:50:47;4.30;;;3.83;;
14139;SDS011;7150;53.514;9.988;2024-02-14T13:53:14;5.07;;;3.83;;
14139;SDS011;7150;53.514;9.988;2024-02-14T13:55:41;4.67;;;3.93;;
14139;SDS011;7150;53.514;9.988;2024-02-14T13:58:07;4.03;;;3.40;;
14139;SDS011;7150;53.514;9.988;2024-02-14T14:00:38;4.13;;;3.63;;
14139;SDS011;7150;53.514;9.988;2024-02-14T14:03:04;4.37;;;3.77;;
14139;SDS011;7150;53.514;9.988;2024-02-14T14:05:30;3.63;;;3.30;;
14139;SDS011;7150;53.514;9.988;2024-02-14T14:07:55;3.83;;;3.40;;
14139;SDS011;7150;53.514;9.988;2024-02-14T14:10:22;5.17;;;3.90;;
14139;SDS011;7150;53.514;9.988;2024-02-14T14:12:50;3.30;;;3.00;;
14139;SDS011;7150;53.514;9.988;2024-02-14T14:15:15;3.50;;;3.00;;
14139;SDS011;7150;53.514;9.988;2024-02-14T14:17:41;3.90;;;3.13;;
14139;SDS011;7150;53.514;9.988;2024-02-14T14:20:06;4.20;;;3.63;;
14139;SDS011;7150;53.514;9.988;2024-02-14T14:22:33;4.40;;;3.20;;
14139;SDS011;7150;53.514;9.988;2024-02-14T14:24:58;3.20;;;2.90;;
14139;SDS011;7150;53.514;9.988;2024-02-14T14:27:24;3.30;;;3.00;;
14139;SDS011;7150;53.514;9.988;2024-02-14T14:29:49;3.40;;;3.10;;
14139;SDS011;7150;53.514;9.988;2024-02-14T14:32:15;5.17;;;3.57;;
14139;SDS011;7150;53.514;9.988;2024-02-14T14:34:41;4.73;;;3.27;;
14139;SDS011;7150;53.514;9.988;2024-02-14T14:37:07;3.40;;;3.10;;
14139;SDS011;7150;53.514;9.988;2024-02-14T14:39:32;4.17;;;3.63;;
14139;SDS011;7150;53.514;9.988;2024-02-14T14:41:58;3.77;;;3.40;;
14139;SDS011;7150;53.514;9.988;2024-02-14T14:44:24;3.73;;;3.10;;
14139;SDS011;7150;53.514;9.988;2024-02-14T14:46:50;5.37;;;3.20;;
14139;SDS011;7150;53.514;9.988;2024-02-14T14:49:16;3.70;;;3.23;;
14139;SDS011;7150;53.514;9.988;2024-02-14T14:51:41;4.07;;;3.60;;
14139;SDS011;7150;53.514;9.988;2024-02-14T14:54:07;3.87;;;3.40;;
14139;SDS011;7150;53.514;9.988;2024-02-14T14:56:34;4.77;;;3.80;;
14139;SDS011;7150;53.514;9.988;2024-02-14T14:58:59;4.27;;;3.87;;
14139;SDS011;7150;53.514;9.988;2024-02-14T15:01:28;3.60;;;3.30;;
14139;SDS011;7150;53.514;9.988;2024-02-14T15:03:54;4.37;;;3.50;;